Time;durP1;ratioP1;P1;durP2;ratioP2;P2;SDS_P1;SDS_P2;PMS_P1;PMS_P2;Temp;Humidity;BMP_temperature;BMP_pressure;BME280_temperature;BME280_humidity;BME280_pressure;Samples;Min_cycle;Max_cycle;Signal;HPM_P1;HPM_P2
2022/09/15 00:00:19;;;;;;;5.90;3.60;;;15.10;99.90;;;;;;4980568;28;20206;-88
2022/09/15 00:02:46;;;;;;;5.40;3.80;;;15.20;99.90;;;;;;4960034;28;20231;-86
2022/09/15 00:05:13;;;;;;;7.30;4.93;;;15.20;99.90;;;;;;4974786;28;20247;-86
2022/09/15 00:07:41;;;;;;;7.20;4.17;;;15.30;99.90;;;;;;4959395;28;20208;-86
2022/09/15 00:10:09;;;;;;;7.53;4.10;;;15.30;99.90;;;;;;4963878;28;20215;-88
2022/09/15 00:12:36;;;;;;;6.70;4.33;;;15.40;99.90;;;;;;4963957;28;20437;-88
2022/09/15 00:15:16;;;;;;;7.27;4.57;;;15.40;99.90;;;;;;4964897;28;20682;-87
2022/09/15 00:17:48;;;;;;;11.63;4.70;;;15.40;99.90;;;;;;4962846;28;20703;-88
2022/09/15 00:20:17;;;;;;;7.23;4.60;;;15.50;99.90;;;;;;4975178;28;20223;-87
2022/09/15 00:22:45;;;;;;;9.47;5.10;;;15.50;99.90;;;;;;4963869;28;20204;-86
2022/09/15 00:25:15;;;;;;;8.07;4.57;;;15.50;99.90;;;;;;4977152;28;20235;-88
2022/09/15 00:27:42;;;;;;;7.13;4.53;;;15.50;99.90;;;;;;4980984;28;20242;-87
2022/09/15 00:30:11;;;;;;;8.40;4.77;;;15.60;99.90;;;;;;4974507;28;20231;-88
2022/09/15 00:32:38;;;;;;;6.60;4.70;;;15.60;99.90;;;;;;4986998;28;20224;-86
2022/09/15 00:35:05;;;;;;;8.73;4.77;;;15.70;99.90;;;;;;4968646;28;20256;-88
2022/09/15 00:37:33;;;;;;;5.83;4.70;;;15.60;99.90;;;;;;4957837;28;20228;-88
2022/09/15 00:40:02;;;;;;;7.87;5.17;;;15.60;99.90;;;;;;4964562;28;20337;-87
2022/09/15 00:42:33;;;;;;;7.30;4.57;;;15.60;99.90;;;;;;4966857;28;20331;-86
2022/09/15 00:45:02;;;;;;;6.37;4.80;;;15.60;99.90;;;;;;4959743;28;20691;-87
2022/09/15 00:47:36;;;;;;;7.90;4.77;;;15.60;99.90;;;;;;4981075;28;20251;-87
2022/09/15 00:50:13;;;;;;;6.90;5.10;;;15.60;99.90;;;;;;4961194;28;20207;-88
2022/09/15 00:52:56;;;;;;;8.03;5.20;;;15.60;99.90;;;;;;4963736;28;20311;-87
2022/09/15 00:55:35;;;;;;;5.57;4.67;;;15.60;99.90;;;;;;4961780;28;20220;-87
2022/09/15 00:58:06;;;;;;;7.47;4.60;;;15.60;99.90;;;;;;4968076;28;20225;-88
2022/09/15 01:00:34;;;;;;;6.60;4.50;;;15.70;99.90;;;;;;4981909;28;20242;-88
2022/09/15 01:03:21;;;;;;;6.67;4.70;;;15.60;99.90;;;;;;4965558;28;20199;-86
2022/09/15 01:05:56;;;;;;;9.23;4.73;;;15.70;99.90;;;;;;4962802;28;20211;-88
2022/09/15 01:09:08;;;;;;;7.67;4.90;;;15.60;99.90;;;;;;4964690;28;20219;-87
2022/09/15 01:11:40;;;;;;;7.27;4.80;;;15.60;99.90;;;;;;4887061;29;20222;-87
2022/09/15 01:14:13;;;;;;;11.00;5.37;;;15.60;99.90;;;;;;4888438;29;20242;-87
2022/09/15 01:17:08;;;;;;;7.63;5.37;;;15.60;99.90;;;;;;4954286;28;20235;-87
2022/09/15 01:20:22;;;;;;;6.37;5.13;;;15.50;99.90;;;;;;4967301;28;20191;-87
2022/09/15 01:23:14;;;;;;;6.20;5.13;;;15.50;99.90;;;;;;4971305;28;20212;-89
2022/09/15 01:25:47;;;;;;;11.30;5.30;;;15.40;99.90;;;;;;4994312;28;20197;-87
2022/09/15 01:28:58;;;;;;;11.23;5.53;;;15.40;99.90;;;;;;4998209;28;20237;-86
2022/09/15 01:34:43;;;;;;;8.37;5.27;;;15.20;99.90;;;;;;4895702;29;20279;-87
2022/09/15 01:37:21;;;;;;;10.00;6.00;;;15.10;99.90;;;;;;4986685;28;20221;-87
2022/09/15 01:39:51;;;;;;;11.67;6.37;;;15.10;99.90;;;;;;5004359;28;20204;-86
2022/09/15 01:42:22;;;;;;;16.93;7.20;;;15.00;99.90;;;;;;4987014;28;20231;-88
2022/09/15 01:44:57;;;;;;;10.30;7.30;;;14.90;99.90;;;;;;5005093;28;20203;-87
2022/09/15 01:47:28;;;;;;;10.53;7.53;;;14.90;99.90;;;;;;4987830;28;20219;-87
2022/09/15 01:50:09;;;;;;;12.70;6.97;;;14.90;99.90;;;;;;5008074;28;20196;-88
2022/09/15 01:52:47;;;;;;;11.93;7.17;;;14.90;99.90;;;;;;4981341;28;20308;-88
2022/09/15 01:55:37;;;;;;;11.20;7.30;;;14.80;99.90;;;;;;4984616;28;20230;-87
2022/09/15 01:58:05;;;;;;;11.50;7.63;;;14.90;99.90;;;;;;4982101;28;20212;-88
2022/09/15 02:00:38;;;;;;;11.03;7.90;;;14.90;99.90;;;;;;4978640;28;20216;-87
2022/09/15 02:03:32;;;;;;;10.90;7.23;;;15.00;99.90;;;;;;4973024;28;20247;-88
2022/09/15 02:06:09;;;;;;;11.67;7.73;;;14.90;99.90;;;;;;4989598;28;20218;-87
2022/09/15 02:08:46;;;;;;;12.47;7.30;;;14.90;99.90;;;;;;4978849;28;20277;-89
2022/09/15 02:11:19;;;;;;;11.40;7.40;;;15.00;99.90;;;;;;4976397;28;20207;-88
2022/09/15 02:14:10;;;;;;;10.43;7.53;;;15.00;99.90;;;;;;4968635;28;20314;-89
2022/09/15 02:16:44;;;;;;;10.40;7.17;;;15.10;99.90;;;;;;4973056;28;20223;-88
2022/09/15 02:19:14;;;;;;;11.00;7.10;;;15.00;99.90;;;;;;4967457;28;20235;-86
2022/09/15 02:22:09;;;;;;;11.80;7.07;;;15.10;99.90;;;;;;4963884;28;20217;-87
2022/09/15 02:25:01;;;;;;;11.73;7.17;;;15.10;99.90;;;;;;4968697;28;20220;-89
2022/09/15 02:27:32;;;;;;;11.10;7.20;;;15.10;99.90;;;;;;4970289;28;20681;-88
2022/09/15 02:30:07;;;;;;;13.80;6.97;;;15.10;99.90;;;;;;4988345;28;20220;-88
2022/09/15 02:32:39;;;;;;;11.03;7.43;;;15.10;99.90;;;;;;4964755;28;20703;-88
2022/09/15 02:35:10;;;;;;;11.57;6.87;;;15.10;99.90;;;;;;4971391;28;20239;-88
2022/09/15 02:37:40;;;;;;;13.50;7.83;;;15.20;99.90;;;;;;4963882;28;20612;-87
2022/09/15 02:40:11;;;;;;;12.73;7.77;;;15.20;99.90;;;;;;4965849;28;20591;-87
2022/09/15 02:42:50;;;;;;;13.73;7.03;;;15.20;99.90;;;;;;4971331;28;20263;-88
2022/09/15 02:45:18;;;;;;;10.63;6.33;;;15.20;99.90;;;;;;4986315;28;20274;-87
2022/09/15 02:47:49;;;;;;;10.63;6.70;;;15.10;99.90;;;;;;4984211;28;20801;-88
2022/09/15 02:50:17;;;;;;;11.77;6.70;;;15.10;99.90;;;;;;4964155;28;20229;-86
2022/09/15 02:52:45;;;;;;;12.83;6.60;;;15.10;99.90;;;;;;4976512;28;20727;-87
2022/09/15 02:55:13;;;;;;;12.83;6.37;;;15.10;99.90;;;;;;4953853;28;20718;-87
2022/09/15 02:57:43;;;;;;;11.43;5.83;;;15.10;99.90;;;;;;4966577;28;20203;-87
2022/09/15 03:00:16;;;;;;;12.77;6.73;;;15.10;99.90;;;;;;4964818;28;20261;-88
2022/09/15 03:02:48;;;;;;;9.37;6.03;;;15.20;99.90;;;;;;4981822;28;20234;-88
2022/09/15 03:05:18;;;;;;;13.07;6.47;;;15.10;99.90;;;;;;4982560;28;20524;-88
2022/09/15 03:07:48;;;;;;;6.03;5.27;;;15.10;99.90;;;;;;4963142;28;20681;-87
2022/09/15 03:10:19;;;;;;;11.20;5.70;;;15.10;99.90;;;;;;4960047;28;20669;-88
2022/09/15 03:12:48;;;;;;;8.40;5.30;;;15.10;99.90;;;;;;4966634;28;20674;-89
2022/09/15 03:15:21;;;;;;;10.60;5.27;;;15.00;99.90;;;;;;4968005;28;20330;-89
2022/09/15 03:17:48;;;;;;;9.97;5.80;;;15.10;99.90;;;;;;4971321;28;20806;-87
2022/09/15 03:20:19;;;;;;;7.77;5.47;;;15.10;99.90;;;;;;4964610;28;20584;-88
2022/09/15 03:22:46;;;;;;;12.07;5.30;;;15.10;99.90;;;;;;4966098;28;20454;-87
2022/09/15 03:25:15;;;;;;;7.93;5.07;;;15.10;99.90;;;;;;4973489;28;20199;-88
2022/09/15 03:27:42;;;;;;;7.57;4.90;;;15.10;99.90;;;;;;4977623;28;20225;-89
2022/09/15 03:30:13;;;;;;;8.23;5.10;;;15.20;99.90;;;;;;4990146;23;20668;-76
2022/09/15 03:32:39;;;;;;;9.03;4.77;;;15.20;99.90;;;;;;4999076;28;21000;-76
2022/09/15 03:35:07;;;;;;;8.50;4.43;;;15.20;99.90;;;;;;4979987;28;20768;-76
2022/09/15 03:37:34;;;;;;;8.80;4.97;;;15.20;99.90;;;;;;4996014;28;20300;-76
2022/09/15 03:40:02;;;;;;;7.97;4.43;;;15.20;99.90;;;;;;4994194;28;20211;-75
2022/09/15 03:42:29;;;;;;;8.97;4.90;;;15.20;99.90;;;;;;4997001;28;20215;-76
2022/09/15 03:44:56;;;;;;;6.33;4.30;;;15.30;99.90;;;;;;4999195;28;20206;-75
2022/09/15 03:47:23;;;;;;;6.80;4.50;;;15.30;99.90;;;;;;4997692;28;20325;-75
2022/09/15 03:49:50;;;;;;;10.50;4.93;;;15.30;99.90;;;;;;4996006;28;20671;-76
2022/09/15 03:52:16;;;;;;;9.23;4.43;;;15.30;99.90;;;;;;4999327;28;20238;-79
2022/09/15 03:54:43;;;;;;;10.17;4.60;;;15.30;99.90;;;;;;4998276;28;20245;-76
2022/09/15 03:57:10;;;;;;;7.00;4.00;;;15.20;99.90;;;;;;4996586;28;20719;-76
2022/09/15 03:59:36;;;;;;;8.97;4.00;;;15.20;99.90;;;;;;4998322;28;20237;-76
2022/09/15 04:02:03;;;;;;;4.63;3.80;;;15.30;99.90;;;;;;4998660;28;20314;-75
2022/09/15 04:04:30;;;;;;;13.93;4.13;;;15.30;99.90;;;;;;4993058;28;20305;-76
2022/09/15 04:06:57;;;;;;;9.30;3.87;;;15.40;99.90;;;;;;4997584;28;20649;-76
2022/09/15 04:09:24;;;;;;;6.47;3.30;;;15.30;99.90;;;;;;4999114;28;20609;-76
2022/09/15 04:11:51;;;;;;;8.13;3.40;;;15.30;99.90;;;;;;4996840;28;20239;-76
2022/09/15 04:14:18;;;;;;;7.17;3.80;;;15.40;99.90;;;;;;4996590;28;20237;-75
2022/09/15 04:16:45;;;;;;;7.70;3.37;;;15.30;99.90;;;;;;4993907;28;20235;-76
2022/09/15 04:19:12;;;;;;;6.67;3.10;;;15.40;99.90;;;;;;4997504;28;20582;-75
2022/09/15 04:21:39;;;;;;;5.73;3.70;;;15.40;99.90;;;;;;4978321;28;20206;-76
2022/09/15 04:24:06;;;;;;;6.43;3.50;;;15.40;99.90;;;;;;4996693;28;20209;-76
2022/09/15 04:26:35;;;;;;;6.90;3.67;;;15.40;99.90;;;;;;4982793;28;20306;-76
2022/09/15 04:29:04;;;;;;;6.30;3.30;;;15.40;99.90;;;;;;4993230;28;20275;-76
2022/09/15 04:31:32;;;;;;;7.47;3.10;;;15.40;99.90;;;;;;4996928;28;20426;-76
2022/09/15 04:33:59;;;;;;;5.50;3.47;;;15.40;99.90;;;;;;4999316;28;20721;-75
2022/09/15 04:36:27;;;;;;;12.93;4.03;;;15.50;99.90;;;;;;4997296;28;20734;-76
2022/09/15 04:38:56;;;;;;;6.07;3.40;;;15.40;99.90;;;;;;4993132;28;20630;-76
2022/09/15 04:41:24;;;;;;;5.77;3.47;;;15.50;99.90;;;;;;4997828;28;20214;-75
2022/09/15 04:43:51;;;;;;;6.30;3.00;;;15.40;99.90;;;;;;4993916;28;20628;-76
2022/09/15 04:46:18;;;;;;;7.27;3.60;;;15.40;99.90;;;;;;4995889;28;20265;-76
2022/09/15 04:48:47;;;;;;;7.73;3.50;;;15.40;99.90;;;;;;5001452;28;20697;-75
2022/09/15 04:51:17;;;;;;;6.60;2.97;;;15.40;99.90;;;;;;4999831;28;20246;-75
2022/09/15 04:53:44;;;;;;;6.93;3.43;;;15.40;99.90;;;;;;5000833;28;20215;-76
2022/09/15 04:56:15;;;;;;;6.17;2.90;;;15.40;99.90;;;;;;5001715;28;20230;-76
2022/09/15 04:58:47;;;;;;;4.13;2.70;;;15.50;99.90;;;;;;5002839;28;20298;-75
2022/09/15 05:01:20;;;;;;;5.47;2.60;;;15.40;99.90;;;;;;4998250;28;20266;-75
2022/09/15 05:03:47;;;;;;;7.07;3.83;;;15.40;99.90;;;;;;5000928;28;20244;-77
2022/09/15 05:06:17;;;;;;;9.87;4.00;;;15.50;99.90;;;;;;4992464;28;20426;-75
2022/09/15 05:08:49;;;;;;;5.47;3.37;;;15.50;99.90;;;;;;4998202;28;20207;-76
2022/09/15 05:11:16;;;;;;;7.27;3.03;;;15.50;99.90;;;;;;4983438;28;20578;-75
2022/09/15 05:13:43;;;;;;;8.87;3.43;;;15.50;99.90;;;;;;5001084;28;20483;-77
2022/09/15 05:16:12;;;;;;;10.37;3.40;;;15.50;99.90;;;;;;5000882;28;20234;-75
2022/09/15 05:18:41;;;;;;;5.90;3.10;;;15.50;99.90;;;;;;4989761;28;20238;-75
2022/09/15 05:21:09;;;;;;;10.83;2.83;;;15.50;99.90;;;;;;4987681;28;20227;-75
2022/09/15 05:23:37;;;;;;;3.80;2.23;;;15.50;99.90;;;;;;4991750;28;20213;-76
2022/09/15 05:26:07;;;;;;;6.57;2.60;;;15.50;99.90;;;;;;4986550;28;20203;-75
2022/09/15 05:28:35;;;;;;;5.70;2.30;;;15.50;99.90;;;;;;4996557;28;20607;-76
2022/09/15 05:31:08;;;;;;;8.30;2.03;;;15.60;99.90;;;;;;5000760;28;20245;-75
2022/09/15 05:33:36;;;;;;;5.23;1.97;;;15.60;99.90;;;;;;4990359;28;20793;-75
2022/09/15 05:36:06;;;;;;;6.93;2.00;;;15.60;99.90;;;;;;4990514;28;20308;-76
2022/09/15 05:38:32;;;;;;;5.00;1.97;;;15.60;99.90;;;;;;4987555;28;20311;-76
2022/09/15 05:41:06;;;;;;;10.93;2.63;;;15.60;99.90;;;;;;4986977;28;20763;-76
2022/09/15 05:43:35;;;;;;;4.53;2.23;;;15.60;99.90;;;;;;4983389;28;20355;-76
2022/09/15 05:46:03;;;;;;;6.87;2.33;;;15.60;99.90;;;;;;4989553;28;21247;-76
2022/09/15 05:48:30;;;;;;;5.03;2.03;;;15.60;99.90;;;;;;4982927;28;20724;-75
2022/09/15 05:50:57;;;;;;;8.07;2.40;;;15.70;99.90;;;;;;4997825;28;20621;-76
2022/09/15 05:53:24;;;;;;;6.00;1.93;;;15.70;99.90;;;;;;4996315;28;20629;-76
2022/09/15 05:55:58;;;;;;;6.33;2.03;;;15.70;99.90;;;;;;4997450;28;20264;-76
2022/09/15 05:58:26;;;;;;;8.83;2.40;;;15.70;99.90;;;;;;4999872;28;20316;-76
2022/09/15 06:00:53;;;;;;;9.73;2.80;;;15.70;99.90;;;;;;4984603;28;20718;-79
2022/09/15 06:03:22;;;;;;;6.63;2.27;;;15.80;99.90;;;;;;4994057;28;20223;-75
2022/09/15 06:06:04;;;;;;;7.97;2.10;;;15.70;99.90;;;;;;4997699;28;20229;-76
2022/09/15 06:08:33;;;;;;;6.03;2.20;;;15.80;99.90;;;;;;4979499;28;20194;-77
2022/09/15 06:11:08;;;;;;;4.90;2.00;;;15.90;99.90;;;;;;4990724;28;20218;-77
2022/09/15 06:13:36;;;;;;;9.90;2.70;;;15.90;99.90;;;;;;4997290;28;20202;-77
2022/09/15 06:16:05;;;;;;;6.13;2.33;;;15.90;99.90;;;;;;4996912;28;20235;-77
2022/09/15 06:18:34;;;;;;;4.50;2.13;;;15.90;99.90;;;;;;4991307;28;20208;-74
2022/09/15 06:21:07;;;;;;;7.53;2.20;;;16.00;99.90;;;;;;4971357;28;20250;-75
2022/09/15 06:23:34;;;;;;;5.30;2.27;;;16.00;99.90;;;;;;4987015;28;20269;-75
2022/09/15 06:26:17;;;;;;;6.57;2.87;;;16.10;99.90;;;;;;4973191;28;20203;-75
2022/09/15 06:28:55;;;;;;;8.57;2.87;;;16.10;99.90;;;;;;4991136;28;20209;-76
2022/09/15 06:31:24;;;;;;;7.03;2.57;;;16.20;99.90;;;;;;4994737;28;20313;-73
2022/09/15 06:33:54;;;;;;;5.47;2.47;;;16.20;99.90;;;;;;4986232;28;20609;-77
2022/09/15 06:36:24;;;;;;;7.80;2.40;;;16.20;99.90;;;;;;4983064;28;20262;-73
2022/09/15 06:38:52;;;;;;;6.17;2.60;;;16.20;99.90;;;;;;4983898;28;20603;-76
2022/09/15 06:41:20;;;;;;;5.20;2.50;;;16.30;99.90;;;;;;4986500;28;20211;-75
2022/09/15 06:43:48;;;;;;;6.60;2.90;;;16.20;99.90;;;;;;4990843;28;20614;-75
2022/09/15 06:46:18;;;;;;;8.60;2.87;;;16.20;99.90;;;;;;4990261;28;20223;-76
2022/09/15 06:48:45;;;;;;;7.30;2.50;;;16.30;99.90;;;;;;4986832;28;21253;-73
2022/09/15 06:51:16;;;;;;;7.37;2.40;;;16.30;99.90;;;;;;4978024;28;20203;-77
2022/09/15 06:53:43;;;;;;;9.67;2.70;;;16.40;99.90;;;;;;4991407;28;20228;-74
2022/09/15 06:56:13;;;;;;;9.00;2.60;;;16.50;99.90;;;;;;4997056;28;20278;-75
2022/09/15 06:58:41;;;;;;;5.43;2.13;;;16.50;99.90;;;;;;4996767;28;20215;-75
2022/09/15 07:01:11;;;;;;;7.63;2.23;;;16.60;99.90;;;;;;4994014;28;20223;-76
2022/09/15 07:03:39;;;;;;;4.05;1.63;;;16.70;99.90;;;;;;4996482;28;20290;-75
2022/09/15 07:06:07;;;;;;;4.93;1.95;;;16.70;99.90;;;;;;4993562;28;20225;-75
2022/09/15 07:08:34;;;;;;;6.85;1.88;;;16.80;99.90;;;;;;5000894;28;20309;-76
2022/09/15 07:11:01;;;;;;;7.90;1.77;;;16.80;99.90;;;;;;4996867;28;20301;-75
2022/09/15 07:13:28;;;;;;;7.07;1.53;;;16.80;99.90;;;;;;4981296;28;20215;-75
2022/09/15 07:15:57;;;;;;;8.33;2.23;;;16.60;99.90;;;;;;4998262;28;20245;-74
2022/09/15 07:18:25;;;;;;;5.60;1.40;;;16.50;99.90;;;;;;4994091;28;20648;-75
2022/09/15 07:20:58;;;;;;;6.87;1.57;;;16.30;99.90;;;;;;4998335;28;20219;-74
2022/09/15 07:23:25;;;;;;;6.20;1.70;;;16.10;99.90;;;;;;4978898;28;20302;-75
2022/09/15 07:26:03;;;;;;;7.23;1.90;;;15.90;99.90;;;;;;5000152;28;20628;-75
2022/09/15 07:28:34;;;;;;;6.37;1.70;;;15.80;99.90;;;;;;4997398;28;20297;-76
2022/09/15 07:31:02;;;;;;;3.50;1.63;;;15.70;99.90;;;;;;4997762;28;20223;-76
2022/09/15 07:33:29;;;;;;;4.70;1.60;;;15.60;99.90;;;;;;4999223;28;20311;-75
2022/09/15 07:35:55;;;;;;;8.17;1.87;;;15.50;99.90;;;;;;4983363;28;20603;-75
2022/09/15 07:38:22;;;;;;;9.40;1.80;;;15.50;99.90;;;;;;4996364;28;20214;-75
2022/09/15 07:40:49;;;;;;;8.13;2.23;;;15.50;99.90;;;;;;4999986;28;20218;-75
2022/09/15 07:43:16;;;;;;;6.07;1.70;;;15.60;99.90;;;;;;5000076;28;20307;-74
2022/09/15 07:45:43;;;;;;;9.10;1.63;;;15.70;99.90;;;;;;5001892;28;20232;-75
2022/09/15 07:48:10;;;;;;;4.03;1.40;;;15.80;99.90;;;;;;5002736;28;20242;-75
2022/09/15 07:50:37;;;;;;;4.27;1.50;;;16.00;99.90;;;;;;4999178;28;20219;-76
2022/09/15 07:53:04;;;;;;;7.53;1.53;;;16.10;99.90;;;;;;5000021;28;20250;-75
2022/09/15 07:55:31;;;;;;;5.00;1.20;;;16.20;99.90;;;;;;5000318;28;20269;-75
2022/09/15 07:57:59;;;;;;;4.93;1.33;;;16.50;99.90;;;;;;4999092;28;20199;-74
2022/09/15 08:00:26;;;;;;;7.17;1.23;;;16.50;99.90;;;;;;4997704;28;20225;-74
2022/09/15 08:02:54;;;;;;;7.97;2.07;;;16.50;99.90;;;;;;4997792;28;20661;-75
2022/09/15 08:05:25;;;;;;;5.23;1.60;;;16.60;99.90;;;;;;4997782;28;20659;-75
2022/09/15 08:07:56;;;;;;;8.90;2.33;;;16.70;99.90;;;;;;4995094;28;20230;-75
2022/09/15 08:10:24;;;;;;;7.53;1.67;;;16.70;99.90;;;;;;4997859;28;20289;-75
2022/09/15 08:12:51;;;;;;;4.43;2.13;;;16.90;99.90;;;;;;4994330;28;20215;-75
2022/09/15 08:15:18;;;;;;;5.18;1.60;;;17.00;99.90;;;;;;4997919;28;20926;-76
2022/09/15 08:17:45;;;;;;;8.60;1.83;;;17.30;99.90;;;;;;4999618;28;20270;-75
2022/09/15 08:20:12;;;;;;;2.15;1.17;;;17.50;99.90;;;;;;4981574;28;20215;-75
2022/09/15 08:22:41;;;;;;;4.82;1.30;;;17.80;99.90;;;;;;4999507;28;20326;-75
2022/09/15 08:25:08;;;;;;;4.40;1.10;;;18.00;99.90;;;;;;4991728;28;20262;-75
2022/09/15 08:27:35;;;;;;;4.72;1.23;;;18.10;99.90;;;;;;4976520;28;20302;-76
2022/09/15 08:30:03;;;;;;;6.18;1.30;;;18.30;99.90;;;;;;4977420;28;20776;-75
2022/09/15 08:32:30;;;;;;;4.15;1.25;;;18.50;99.90;;;;;;5003382;28;20219;-75
2022/09/15 08:34:57;;;;;;;5.45;0.95;;;18.70;99.90;;;;;;4981305;28;20571;-75
2022/09/15 08:37:24;;;;;;;2.72;1.25;;;18.90;99.90;;;;;;4980262;28;20257;-75
2022/09/15 08:39:51;;;;;;;7.25;1.55;;;19.20;99.90;;;;;;4971296;28;20207;-76
2022/09/15 08:42:19;;;;;;;4.95;1.20;;;19.50;99.90;;;;;;4989019;28;20738;-78
2022/09/15 08:45:04;;;;;;;3.92;1.20;;;19.50;99.90;;;;;;4989936;28;20282;-77
2022/09/15 08:47:35;;;;;;;4.95;1.10;;;19.60;99.90;;;;;;4990814;28;20230;-77
2022/09/15 08:50:17;;;;;;;5.47;1.85;;;19.60;99.90;;;;;;4978799;28;20211;-76
2022/09/15 08:52:58;;;;;;;6.18;0.98;;;19.50;99.90;;;;;;4991393;28;20586;-76
2022/09/15 08:55:44;;;;;;;3.05;0.95;;;19.50;99.90;;;;;;4976843;28;20325;-76
2022/09/15 08:58:15;;;;;;;4.20;1.00;;;19.50;99.90;;;;;;4991749;28;20634;-76
2022/09/15 09:00:44;;;;;;;7.15;1.40;;;19.50;99.90;;;;;;4972987;28;20199;-76
2022/09/15 09:03:18;;;;;;;4.25;1.15;;;19.50;99.90;;;;;;4981310;28;20207;-75
2022/09/15 09:05:56;;;;;;;5.95;1.15;;;19.50;99.90;;;;;;4983790;28;20211;-76
2022/09/15 09:09:00;;;;;;;4.93;1.05;;;19.50;99.90;;;;;;5011714;28;20191;-76
2022/09/15 09:12:02;;;;;;;3.53;0.93;;;19.40;99.90;;;;;;5007346;28;20206;-76
2022/09/15 09:15:08;;;;;;;5.10;1.45;;;19.40;99.90;;;;;;5000160;28;20306;-76
2022/09/15 09:17:43;;;;;;;5.90;1.10;;;19.50;99.90;;;;;;4973341;28;20241;-77
2022/09/15 09:20:18;;;;;;;4.30;1.20;;;19.50;99.90;;;;;;4993073;28;20241;-77
2022/09/15 09:22:48;;;;;;;7.63;1.20;;;19.60;99.90;;;;;;4992625;28;20207;-76
2022/09/15 09:25:18;;;;;;;4.60;1.10;;;19.80;99.90;;;;;;4995801;28;20329;-77
2022/09/15 09:27:54;;;;;;;2.72;0.98;;;19.80;99.90;;;;;;4990993;28;20253;-74
2022/09/15 09:30:23;;;;;;;4.72;0.90;;;20.00;99.90;;;;;;4996415;28;20274;-73
2022/09/15 09:33:12;;;;;;;5.47;1.08;;;20.30;99.90;;;;;;4993746;28;20278;-76
2022/09/15 09:35:45;;;;;;;4.75;1.40;;;20.50;99.90;;;;;;4980760;28;20229;-75
2022/09/15 09:38:19;;;;;;;6.68;1.20;;;20.50;99.90;;;;;;4966368;28;20242;-76
2022/09/15 09:40:46;;;;;;;3.35;1.00;;;20.60;99.90;;;;;;4978103;28;20219;-76
2022/09/15 09:43:14;;;;;;;4.03;1.00;;;20.50;99.90;;;;;;4996393;28;20278;-75
2022/09/15 09:45:41;;;;;;;3.17;0.85;;;20.40;99.90;;;;;;4994324;28;20195;-75
2022/09/15 09:48:33;;;;;;;3.63;1.10;;;20.40;99.90;;;;;;4995543;28;20258;-74
2022/09/15 09:51:00;;;;;;;4.57;1.17;;;20.40;99.90;;;;;;4979714;28;20568;-75
2022/09/15 09:53:32;;;;;;;3.33;1.15;;;20.50;99.90;;;;;;4984930;28;20211;-76
2022/09/15 09:56:10;;;;;;;5.05;1.10;;;20.50;99.90;;;;;;4988096;28;20263;-79
2022/09/15 09:58:37;;;;;;;4.68;1.15;;;20.70;99.90;;;;;;4985283;28;20195;-75
2022/09/15 10:01:16;;;;;;;3.33;0.70;;;20.80;99.90;;;;;;4975584;28;20233;-77
2022/09/15 10:03:44;;;;;;;2.47;0.80;;;20.90;99.90;;;;;;4967713;28;20208;-75
2022/09/15 10:06:13;;;;;;;3.42;1.55;;;21.10;99.90;;;;;;4994100;28;20214;-77
2022/09/15 10:09:04;;;;;;;3.88;1.00;;;21.20;99.90;;;;;;4986867;28;20206;-77
2022/09/15 10:11:57;;;;;;;6.47;1.20;;;21.40;99.90;;;;;;4996174;28;20211;-77
2022/09/15 10:14:39;;;;;;;4.25;1.02;;;21.40;99.90;;;;;;4990297;28;20246;-77
2022/09/15 10:17:12;;;;;;;3.78;1.23;;;21.40;99.90;;;;;;4995428;28;20263;-77
2022/09/15 10:19:45;;;;;;;3.03;1.20;;;21.40;99.90;;;;;;4963750;28;20207;-75
2022/09/15 10:22:30;;;;;;;7.55;1.20;;;21.40;99.90;;;;;;4990803;28;20229;-76
2022/09/15 10:24:59;;;;;;;5.90;1.50;;;21.50;99.90;;;;;;4990050;28;20203;-75
2022/09/15 10:27:34;;;;;;;4.22;1.15;;;21.50;99.90;;;;;;4992590;28;20258;-75
2022/09/15 10:30:21;;;;;;;6.32;0.93;;;21.40;99.90;;;;;;4986577;28;20316;-76
2022/09/15 10:32:48;;;;;;;5.20;1.02;;;21.30;99.90;;;;;;4972268;28;20227;-76
2022/09/15 10:35:17;;;;;;;5.10;1.25;;;21.10;99.90;;;;;;4995440;28;20242;-75
2022/09/15 10:38:03;;;;;;;5.72;0.93;;;21.00;99.90;;;;;;4978753;28;20236;-76
2022/09/15 10:40:57;;;;;;;5.18;1.00;;;20.90;99.90;;;;;;4979878;28;20662;-76
2022/09/15 10:43:45;;;;;;;4.82;1.00;;;20.80;99.90;;;;;;4980717;28;20535;-77
2022/09/15 10:46:25;;;;;;;3.25;1.00;;;20.80;99.90;;;;;;4993757;28;20314;-76
2022/09/15 10:49:03;;;;;;;5.80;0.90;;;20.70;99.90;;;;;;4976731;28;20203;-76
2022/09/15 10:51:38;;;;;;;5.32;1.10;;;20.80;99.90;;;;;;4994867;28;20198;-76
2022/09/15 10:54:10;;;;;;;4.35;1.15;;;20.80;99.90;;;;;;4991189;28;20424;-76
2022/09/15 10:56:43;;;;;;;3.35;0.90;;;20.90;99.90;;;;;;4996263;28;20413;-75
2022/09/15 10:59:18;;;;;;;5.63;1.25;;;21.00;99.90;;;;;;4994852;28;20202;-78
2022/09/15 11:02:42;;;;;;;3.97;1.00;;;21.10;99.90;;;;;;4989729;28;20231;-76
2022/09/15 11:05:38;;;;;;;2.92;1.02;;;21.30;99.90;;;;;;4911021;29;20796;-76
2022/09/15 11:08:22;;;;;;;6.25;1.08;;;21.60;99.90;;;;;;4907381;29;20823;-75
2022/09/15 11:11:03;;;;;;;3.60;1.00;;;21.70;99.90;;;;;;4960726;28;20765;-77
2022/09/15 11:13:55;;;;;;;4.60;1.10;;;21.70;99.90;;;;;;4993565;28;20203;-76
2022/09/15 11:16:50;;;;;;;6.38;1.13;;;21.70;99.90;;;;;;4978284;28;20244;-75
2022/09/15 11:19:24;;;;;;;3.28;0.95;;;21.80;99.90;;;;;;4993990;28;20286;-76
2022/09/15 11:22:04;;;;;;;3.95;0.98;;;21.70;99.90;;;;;;4994737;28;20679;-74
2022/09/15 11:24:42;;;;;;;5.63;1.13;;;21.80;99.90;;;;;;4990092;28;20318;-76
2022/09/15 11:27:22;;;;;;;3.72;1.45;;;21.80;99.90;;;;;;4990860;28;20202;-75
2022/09/15 11:30:09;;;;;;;3.72;1.30;;;21.70;99.90;;;;;;4994923;28;20329;-76
2022/09/15 11:32:45;;;;;;;3.20;1.10;;;21.70;99.90;;;;;;4977769;28;20314;-75
2022/09/15 11:35:29;;;;;;;6.35;1.10;;;21.70;99.90;;;;;;4995206;28;20207;-76
2022/09/15 11:38:29;;;;;;;3.90;0.90;;;21.70;99.90;;;;;;4979777;28;20694;-74
2022/09/15 11:41:20;;;;;;;2.80;0.80;;;21.70;99.90;;;;;;4993494;28;20202;-75
2022/09/15 11:44:13;;;;;;;3.80;1.13;;;21.50;99.90;;;;;;4965738;28;20698;-74
2022/09/15 11:47:04;;;;;;;4.22;1.27;;;21.40;99.90;;;;;;4995494;28;20313;-75
2022/09/15 11:49:53;;;;;;;3.78;0.82;;;21.00;99.90;;;;;;4988957;28;20524;-75
2022/09/15 11:52:57;;;;;;;4.68;1.17;;;20.50;99.90;;;;;;4969715;28;20687;-76
2022/09/15 11:55:41;;;;;;;2.88;0.90;;;20.10;99.90;;;;;;4991031;28;20273;-75
2022/09/15 11:58:27;;;;;;;2.58;1.05;;;19.70;99.90;;;;;;4992797;28;20603;-75
2022/09/15 12:01:00;;;;;;;5.82;1.15;;;19.50;99.90;;;;;;4978739;28;21158;-75
2022/09/15 12:03:46;;;;;;;5.05;1.23;;;19.30;99.90;;;;;;4994371;28;20223;-75
2022/09/15 12:06:45;;;;;;;4.30;1.52;;;19.10;99.90;;;;;;4973642;28;20206;-76
2022/09/15 12:09:17;;;;;;;4.70;1.00;;;19.20;99.90;;;;;;4971478;28;20638;-76
2022/09/15 12:11:46;;;;;;;3.40;1.02;;;19.20;99.90;;;;;;4974249;28;20210;-76
2022/09/15 12:14:16;;;;;;;2.60;1.00;;;19.40;99.90;;;;;;4995500;28;20216;-76
2022/09/15 12:16:44;;;;;;;5.78;1.00;;;19.50;99.90;;;;;;4993761;28;20241;-75
2022/09/15 12:19:32;;;;;;;4.80;1.20;;;19.60;99.90;;;;;;4994527;28;20620;-74
2022/09/15 12:22:28;;;;;;;6.85;1.67;;;19.70;99.90;;;;;;4968425;28;20318;-75
2022/09/15 12:25:09;;;;;;;5.18;1.20;;;19.90;99.90;;;;;;4960051;28;20653;-75
2022/09/15 12:27:37;;;;;;;3.95;1.10;;;19.90;99.90;;;;;;4990338;28;20668;-77
2022/09/15 12:30:05;;;;;;;6.18;1.45;;;20.00;99.90;;;;;;4988932;28;20272;-77
2022/09/15 12:32:33;;;;;;;3.15;1.10;;;20.20;99.90;;;;;;4972595;28;20217;-76
2022/09/15 12:35:23;;;;;;;5.05;1.50;;;20.50;99.90;;;;;;4992735;28;20256;-76
2022/09/15 12:37:58;;;;;;;7.25;1.75;;;20.90;99.90;;;;;;4994974;28;20276;-76
2022/09/15 12:40:34;;;;;;;5.75;1.27;;;21.10;99.90;;;;;;4991475;28;20206;-77
2022/09/15 12:43:22;;;;;;;4.20;1.20;;;21.30;99.90;;;;;;4990050;28;20561;-73
2022/09/15 12:45:58;;;;;;;1.73;0.70;;;21.60;99.90;;;;;;4991611;28;20234;-78
2022/09/15 12:48:32;;;;;;;1.42;0.70;;;21.60;99.90;;;;;;4973999;28;20423;-80
2022/09/15 12:51:03;;;;;;;5.00;0.93;;;21.50;99.90;;;;;;4991615;28;20264;-81
2022/09/15 12:53:50;;;;;;;2.67;0.80;;;21.50;99.90;;;;;;4978770;28;20263;-82
2022/09/15 12:56:24;;;;;;;3.38;0.80;;;21.40;99.90;;;;;;4991759;28;20816;-81
2022/09/15 12:58:52;;;;;;;2.75;0.93;;;21.50;99.90;;;;;;4993615;28;20528;-78
2022/09/15 13:01:25;;;;;;;5.32;0.90;;;21.50;99.90;;;;;;4978280;28;20631;-82
2022/09/15 13:03:53;;;;;;;2.72;0.70;;;21.50;99.90;;;;;;4990340;28;20230;-81
2022/09/15 13:06:29;;;;;;;2.97;1.00;;;21.30;99.90;;;;;;4976560;28;20199;-80
2022/09/15 13:09:02;;;;;;;3.10;1.13;;;21.20;99.90;;;;;;4989983;28;20286;-82
2022/09/15 13:11:38;;;;;;;2.88;1.00;;;21.10;99.90;;;;;;4968619;28;20207;-80
2022/09/15 13:14:12;;;;;;;2.03;0.77;;;20.90;99.90;;;;;;4998565;28;20216;-81
2022/09/15 13:16:39;;;;;;;4.63;0.93;;;20.90;99.90;;;;;;4974917;28;20758;-79
2022/09/15 13:19:12;;;;;;;3.75;0.80;;;20.90;99.90;;;;;;4980587;28;20231;-81
2022/09/15 13:21:48;;;;;;;3.47;0.80;;;20.90;99.90;;;;;;4990704;28;20209;-80